createdAt,value
2022-10-20T00:04:46.544Z,10.48
2022-10-20T00:09:36.158Z,10.45
2022-10-20T00:14:25.819Z,10.44
2022-10-20T00:19:15.698Z,10.43
2022-10-20T00:24:08.118Z,10.37
2022-10-20T00:28:58.366Z,10.44
2022-10-20T00:33:48.195Z,10.41
2022-10-20T00:38:38.847Z,10.40
2022-10-20T00:43:44.642Z,10.40
2022-10-20T00:48:35.481Z,10.39
2022-10-20T00:53:27.042Z,10.36
2022-10-20T00:58:17.429Z,10.33
2022-10-20T01:03:14.697Z,10.36
2022-10-20T01:08:04.538Z,10.30
2022-10-20T01:13:01.436Z,10.18
2022-10-20T01:18:02.536Z,10.30
2022-10-20T01:23:43.568Z,10.28
2022-10-20T01:28:42.405Z,10.26
2022-10-20T01:33:42.616Z,10.23
2022-10-20T01:38:39.458Z,10.22
2022-10-20T01:43:34.696Z,10.20
2022-10-20T01:48:31.200Z,10.16
2022-10-20T01:53:22.302Z,10.18
2022-10-20T01:58:45.724Z,10.17
2022-10-20T02:03:48.629Z,10.06
2022-10-20T02:08:46.139Z,10.14
2022-10-20T02:13:39.764Z,10.10
2022-10-20T02:18:33.581Z,10.07
2022-10-20T02:23:26.237Z,10.06
2022-10-20T02:28:18.457Z,10.05
2022-10-20T02:33:08.973Z,10.05
2022-10-20T02:37:59.647Z,10.01
2022-10-20T02:42:52.039Z,10.01
2022-10-20T02:47:41.738Z,9.92
2022-10-20T02:52:31.626Z,10.04
2022-10-20T02:57:22.059Z,10.05
2022-10-20T03:02:15.505Z,9.96
2022-10-20T03:07:05.242Z,10.05
2022-10-20T03:11:55.712Z,10.04
2022-10-20T03:16:45.587Z,9.98
2022-10-20T03:21:38.140Z,10.04
2022-10-20T03:26:28.283Z,10.08
2022-10-20T03:31:18.195Z,10.07
2022-10-20T03:36:08.689Z,10.09
2022-10-20T03:45:51.790Z,10.11
2022-10-20T03:50:42.191Z,10.15
2022-10-20T03:55:31.817Z,10.18
2022-10-20T04:00:24.547Z,10.18
2022-10-20T04:05:15.853Z,10.20
2022-10-20T04:10:05.750Z,10.21
2022-10-20T04:14:55.349Z,10.25
2022-10-20T04:19:47.584Z,10.25
2022-10-20T04:24:37.320Z,10.27
2022-10-20T04:29:26.954Z,10.28
2022-10-20T04:34:16.562Z,10.29
2022-10-20T04:39:11.417Z,10.29
2022-10-20T04:44:01.335Z,10.31
2022-10-20T04:48:50.919Z,10.32
2022-10-20T04:53:41.906Z,10.31
2022-10-20T04:58:34.267Z,10.33
2022-10-20T05:03:24.269Z,10.26
2022-10-20T05:08:13.918Z,10.30
2022-10-20T05:13:03.539Z,10.29
2022-10-20T05:17:55.806Z,10.32
2022-10-20T05:22:45.435Z,10.34
2022-10-20T05:27:35.186Z,10.32
2022-10-20T05:32:25.074Z,10.31
2022-10-20T05:37:18.449Z,10.28
2022-10-20T05:42:09.453Z,10.29
2022-10-20T05:47:00.160Z,10.28
2022-10-20T05:51:51.455Z,10.26
2022-10-20T05:56:45.753Z,10.27
2022-10-20T06:01:48.484Z,10.25
2022-10-20T06:06:40.203Z,10.25
2022-10-20T06:11:34.716Z,10.24
2022-10-20T06:16:32.740Z,10.26
2022-10-20T06:21:25.406Z,10.27
2022-10-20T06:26:17.717Z,10.30
2022-10-20T06:31:13.994Z,10.31
2022-10-20T06:36:06.642Z,10.32
2022-10-20T06:40:56.631Z,10.35
2022-10-20T06:45:46.259Z,10.28
2022-10-20T06:50:36.307Z,10.28
2022-10-20T06:55:28.601Z,10.42
2022-10-20T07:00:18.746Z,10.36
2022-10-20T07:05:09.509Z,10.51
2022-10-20T07:09:59.123Z,10.50
2022-10-20T07:14:51.549Z,10.56
2022-10-20T07:19:41.155Z,10.61
2022-10-20T07:24:31.013Z,10.64
2022-10-20T07:29:20.862Z,10.67
2022-10-20T07:34:30.164Z,10.66
2022-10-20T07:39:19.874Z,10.77
2022-10-20T07:44:11.206Z,10.82
2022-10-20T07:49:23.849Z,10.84
2022-10-20T07:54:14.119Z,10.93
2022-10-20T07:59:03.790Z,11.01
2022-10-20T08:03:53.457Z,11.08
2022-10-20T08:08:43.184Z,11.15
2022-10-20T08:13:35.846Z,11.20
2022-10-20T08:18:27.315Z,11.32
2022-10-20T08:23:17.148Z,11.40
2022-10-20T08:28:07.188Z,11.46
2022-10-20T08:33:00.308Z,11.58
2022-10-20T08:37:50.358Z,11.66
2022-10-20T08:42:45.210Z,11.81
2022-10-20T08:47:39.559Z,11.95
2022-10-20T08:52:32.206Z,12.09
2022-10-20T08:57:25.856Z,12.19
2022-10-20T09:02:19.205Z,12.35
2022-10-20T09:07:23.139Z,12.51
2022-10-20T09:12:16.042Z,12.67
2022-10-20T09:17:11.315Z,12.82
2022-10-20T09:22:07.124Z,12.93
2022-10-20T09:26:59.644Z,13.04
2022-10-20T09:31:56.101Z,13.17
2022-10-20T09:36:51.250Z,13.29
2022-10-20T09:41:42.566Z,13.37
2022-10-20T09:46:37.244Z,13.41
2022-10-20T09:51:33.396Z,13.42
2022-10-20T09:56:31.626Z,13.30
2022-10-20T10:01:22.585Z,13.28
2022-10-20T10:06:24.559Z,13.36
2022-10-20T10:11:21.823Z,13.34
2022-10-20T10:16:14.347Z,13.35
2022-10-20T10:21:07.331Z,13.36
2022-10-20T10:26:00.721Z,13.38
2022-10-20T10:31:09.343Z,13.51
2022-10-20T10:36:00.885Z,13.50
2022-10-20T10:41:03.538Z,13.39
2022-10-20T10:46:00.515Z,13.53
2022-10-20T10:50:57.604Z,13.52
2022-10-20T10:55:59.467Z,13.55
2022-10-20T11:01:04.532Z,13.53
2022-10-20T11:06:17.347Z,13.63
2022-10-20T11:11:21.969Z,13.69
2022-10-20T11:16:27.619Z,13.73
2022-10-20T11:21:31.938Z,13.79
2022-10-20T11:26:29.298Z,13.84
2022-10-20T11:31:29.636Z,13.90
2022-10-20T11:36:25.634Z,14.00
2022-10-20T11:41:21.160Z,14.08
2022-10-20T11:46:15.672Z,14.12
2022-10-20T11:51:33.504Z,14.09
2022-10-20T11:56:36.216Z,14.12
2022-10-20T12:01:38.684Z,14.13
2022-10-20T12:07:04.469Z,14.17
2022-10-20T12:12:03.637Z,14.18
2022-10-20T12:17:22.398Z,14.26
2022-10-20T12:22:45.473Z,14.29
2022-10-20T12:27:40.189Z,14.38
2022-10-20T12:32:57.698Z,14.43
2022-10-20T12:37:58.602Z,14.51
2022-10-20T12:42:56.103Z,14.63
2022-10-20T12:47:59.196Z,14.77
2022-10-20T12:52:55.459Z,14.83
2022-10-20T12:57:47.799Z,14.79
2022-10-20T13:02:54.162Z,14.87
2022-10-20T13:08:04.529Z,14.87
2022-10-20T13:12:55.686Z,15.05
2022-10-20T13:17:59.399Z,15.39
2022-10-20T13:22:53.319Z,15.51
2022-10-20T13:27:43.976Z,15.75
2022-10-20T13:32:48.031Z,15.92
2022-10-20T13:38:01.634Z,16.21
2022-10-20T13:43:04.917Z,16.35
2022-10-20T13:47:59.551Z,16.55
2022-10-20T13:52:50.939Z,16.67
2022-10-20T13:57:54.909Z,16.71
2022-10-20T14:02:54.853Z,16.85
2022-10-20T14:07:47.353Z,16.79
2022-10-20T14:12:38.777Z,17.00
2022-10-20T14:17:33.837Z,17.12
2022-10-20T14:22:27.511Z,17.27
2022-10-20T14:27:23.371Z,17.38
2022-10-20T14:32:19.347Z,17.36
2022-10-20T14:37:31.910Z,17.30
2022-10-20T14:42:27.086Z,17.29
2022-10-20T14:47:21.354Z,17.30
2022-10-20T14:52:26.803Z,17.36
2022-10-20T14:57:46.026Z,17.40
2022-10-20T15:02:42.020Z,17.39
2022-10-20T15:07:37.838Z,17.35
2022-10-20T15:12:37.455Z,17.36
2022-10-20T15:17:37.787Z,17.39
2022-10-20T15:22:29.072Z,17.35
2022-10-20T15:27:23.444Z,17.37
2022-10-20T15:32:14.240Z,17.35
2022-10-20T15:37:07.486Z,17.31
2022-10-20T15:41:59.677Z,17.26
2022-10-20T15:46:55.625Z,17.24
2022-10-20T15:51:50.923Z,17.15
2022-10-20T15:56:46.631Z,17.13
2022-10-20T16:01:38.448Z,17.04
2022-10-20T16:06:31.713Z,17.05
2022-10-20T16:11:32.069Z,17.01
2022-10-20T16:16:23.306Z,16.98
2022-10-20T16:21:14.504Z,16.96
2022-10-20T16:26:13.743Z,16.88
2022-10-20T16:31:11.381Z,16.83
2022-10-20T16:36:01.054Z,16.74
2022-10-20T16:40:59.756Z,16.77
2022-10-20T16:45:51.898Z,16.80
2022-10-20T16:50:45.238Z,16.72
2022-10-20T16:55:36.064Z,16.67
2022-10-20T17:00:28.325Z,16.51
2022-10-20T17:05:26.407Z,16.49
2022-10-20T17:10:17.981Z,16.43
2022-10-20T17:15:12.861Z,16.36
2022-10-20T17:20:03.431Z,16.23
2022-10-20T17:24:56.804Z,16.29
2022-10-20T17:29:47.612Z,16.26
2022-10-20T17:34:38.669Z,16.24
2022-10-20T17:39:29.597Z,16.23
2022-10-20T17:44:23.163Z,16.14
2022-10-20T17:49:14.062Z,16.11
2022-10-20T17:54:04.792Z,16.03
2022-10-20T17:58:55.680Z,15.93
2022-10-20T18:03:51.044Z,15.93
2022-10-20T18:08:42.899Z,15.80
2022-10-20T18:13:34.103Z,15.75
2022-10-20T18:18:34.654Z,15.75
2022-10-20T18:23:30.025Z,15.75
2022-10-20T18:28:26.884Z,15.72
2022-10-20T18:33:17.469Z,15.67
2022-10-20T18:38:10.314Z,15.65
2022-10-20T18:43:06.597Z,15.64
2022-10-20T18:47:57.460Z,15.61
2022-10-20T18:52:48.884Z,15.60
2022-10-20T18:57:41.680Z,15.65
2022-10-20T19:07:56.993Z,15.63
2022-10-20T19:12:48.607Z,15.67
2022-10-20T19:17:43.645Z,15.65
2022-10-20T19:22:34.539Z,15.66
2022-10-20T19:27:26.951Z,15.61
2022-10-20T19:32:18.360Z,15.59
2022-10-20T19:37:12.454Z,15.50
2022-10-20T19:42:04.859Z,15.56
2022-10-20T19:46:55.763Z,15.51
2022-10-20T19:51:48.307Z,15.49
2022-10-20T19:56:42.131Z,15.45
2022-10-20T20:01:32.633Z,15.37
2022-10-20T20:06:24.805Z,15.35
2022-10-20T20:11:24.149Z,15.34
2022-10-20T20:16:17.316Z,15.29
2022-10-20T20:21:09.170Z,15.26
2022-10-20T20:26:06.312Z,15.22
2022-10-20T20:31:04.591Z,15.19
2022-10-20T20:36:01.870Z,15.15
2022-10-20T20:40:52.654Z,15.16
2022-10-20T20:45:44.428Z,15.17
2022-10-20T20:50:35.121Z,15.15
2022-10-20T20:55:27.987Z,15.15
2022-10-20T21:00:19.395Z,15.14
2022-10-20T21:05:10.735Z,15.16
2022-10-20T21:10:00.498Z,15.16
2022-10-20T21:14:52.868Z,15.10
2022-10-20T21:19:42.448Z,15.11
2022-10-20T21:24:32.298Z,15.11
2022-10-20T21:29:22.581Z,15.07
2022-10-20T21:34:16.316Z,15.09
2022-10-20T21:39:08.999Z,15.06
2022-10-20T21:44:02.147Z,15.06
2022-10-20T21:48:53.749Z,15.05
2022-10-20T21:53:46.215Z,15.02
2022-10-20T21:58:36.296Z,15.09
2022-10-20T22:03:27.383Z,15.06
2022-10-20T22:08:17.282Z,15.05
2022-10-20T22:13:09.814Z,15.09
2022-10-20T22:18:00.113Z,15.10
2022-10-20T22:22:50.467Z,15.09
2022-10-20T22:27:43.597Z,15.10
2022-10-20T22:32:36.465Z,15.13
2022-10-20T22:37:26.572Z,15.12
2022-10-20T22:42:18.369Z,15.11
2022-10-20T22:47:10.862Z,15.06
2022-10-20T22:52:04.208Z,15.05
2022-10-20T22:56:55.279Z,15.01
2022-10-20T23:01:46.065Z,14.98
2022-10-20T23:06:40.426Z,14.95
2022-10-20T23:11:35.502Z,14.81
2022-10-20T23:16:28.822Z,14.90
2022-10-20T23:21:19.905Z,14.85
2022-10-20T23:26:11.496Z,14.83
2022-10-20T23:31:15.512Z,14.83
2022-10-20T23:36:06.589Z,14.86
2022-10-20T23:40:57.932Z,14.84
2022-10-20T23:45:48.249Z,14.85
2022-10-20T23:50:41.041Z,14.83
2022-10-20T23:55:31.474Z,14.82
